Time;durP1;ratioP1;P1;durP2;ratioP2;P2;SDS_P1;SDS_P2;PMS_P1;PMS_P2;Temp;Humidity;BMP_temperature;BMP_pressure;BME280_temperature;BME280_humidity;BME280_pressure;Samples;Min_cycle;Max_cycle;Signal;HPM_P1;HPM_P2
2022/02/13 00:00:06;;;;;;;7.38;4.63;;;17.50;81.60;;;;;;4193447;28;20309;-71
2022/02/13 00:02:09;;;;;;;5.88;4.43;;;17.60;81.70;;;;;;4195285;28;20277;-71
2022/02/13 00:04:11;;;;;;;10.55;5.00;;;17.50;81.50;;;;;;4195114;28;20227;-71
2022/02/13 00:06:13;;;;;;;7.57;4.72;;;17.60;81.70;;;;;;4194270;28;20617;-71
2022/02/13 00:08:16;;;;;;;7.93;4.75;;;17.50;81.70;;;;;;4195244;28;20237;-70
2022/02/13 00:10:18;;;;;;;5.90;4.50;;;17.50;81.70;;;;;;4195134;28;20621;-71
2022/02/13 00:12:20;;;;;;;6.90;4.00;;;17.50;81.60;;;;;;4195248;28;20215;-71
2022/02/13 00:14:23;;;;;;;7.75;5.03;;;17.50;81.70;;;;;;4195415;28;20253;-71
2022/02/13 00:16:26;;;;;;;6.82;4.32;;;17.50;81.70;;;;;;4194633;28;20210;-71
2022/02/13 00:18:29;;;;;;;6.70;5.00;;;17.50;81.80;;;;;;4193138;28;20241;-71
2022/02/13 00:20:34;;;;;;;6.85;4.63;;;17.50;81.70;;;;;;4195113;28;20211;-71
2022/02/13 00:22:36;;;;;;;5.95;4.22;;;17.50;81.50;;;;;;4192108;28;20214;-71
2022/02/13 00:24:39;;;;;;;6.65;4.35;;;17.50;81.60;;;;;;4195100;28;20223;-71
2022/02/13 00:26:41;;;;;;;6.60;4.00;;;17.50;81.70;;;;;;4195281;28;20250;-71
2022/02/13 00:28:44;;;;;;;6.35;4.28;;;17.50;81.80;;;;;;4194613;28;20219;-71
2022/02/13 00:30:46;;;;;;;5.47;4.22;;;17.50;81.60;;;;;;4194745;28;20292;-72
2022/02/13 00:32:52;;;;;;;6.45;4.30;;;17.50;81.60;;;;;;4195116;28;20273;-71
2022/02/13 00:34:54;;;;;;;5.82;4.20;;;17.50;81.60;;;;;;4194668;28;20214;-71
2022/02/13 00:36:57;;;;;;;7.13;4.43;;;17.50;81.80;;;;;;4193586;28;20260;-71
2022/02/13 00:38:59;;;;;;;5.32;4.03;;;17.50;81.70;;;;;;4192363;28;20223;-71
2022/02/13 00:41:02;;;;;;;5.80;4.18;;;17.50;82.50;;;;;;4192388;28;20647;-71
2022/02/13 00:43:04;;;;;;;7.15;4.13;;;17.50;81.60;;;;;;4193765;28;20721;-71
2022/02/13 00:45:11;;;;;;;5.95;4.10;;;17.50;81.60;;;;;;4192379;28;20246;-74
2022/02/13 00:47:13;;;;;;;6.40;4.25;;;17.50;81.70;;;;;;4193274;28;20268;-73
2022/02/13 00:49:17;;;;;;;7.65;4.45;;;17.50;81.70;;;;;;4193673;28;20219;-73
2022/02/13 00:51:19;;;;;;;5.60;3.95;;;17.50;82.40;;;;;;4194029;28;20336;-74
2022/02/13 00:53:22;;;;;;;8.02;4.28;;;17.50;81.40;;;;;;4193727;28;20273;-74
2022/02/13 00:55:24;;;;;;;4.20;3.50;;;17.40;82.10;;;;;;4193188;28;20268;-73
2022/02/13 00:57:27;;;;;;;4.70;3.53;;;17.40;81.40;;;;;;4191798;28;20284;-74
2022/02/13 00:59:29;;;;;;;6.00;4.15;;;17.40;81.10;;;;;;4192994;28;20269;-73
2022/02/13 01:01:32;;;;;;;6.47;4.15;;;17.40;81.40;;;;;;4193102;28;20214;-73
2022/02/13 01:03:34;;;;;;;6.10;4.38;;;17.30;81.40;;;;;;4192961;28;20268;-74
2022/02/13 01:05:38;;;;;;;6.47;3.80;;;17.40;81.50;;;;;;4191987;28;20331;-74
2022/02/13 01:07:40;;;;;;;4.70;3.75;;;17.40;81.50;;;;;;4192952;28;20219;-74
2022/02/13 01:09:42;;;;;;;5.00;3.97;;;17.40;81.60;;;;;;4193337;28;20277;-75
2022/02/13 01:11:45;;;;;;;5.45;3.88;;;17.40;81.40;;;;;;4193117;28;20640;-74
2022/02/13 01:13:48;;;;;;;4.70;3.83;;;17.40;81.40;;;;;;4188779;28;20273;-74
2022/02/13 01:15:50;;;;;;;5.38;4.07;;;17.30;81.40;;;;;;4192014;28;20219;-74
2022/02/13 01:17:53;;;;;;;5.68;3.75;;;17.30;81.30;;;;;;4193568;28;20215;-76
2022/02/13 01:19:55;;;;;;;5.82;3.97;;;17.30;81.40;;;;;;4193724;28;20660;-76
2022/02/13 01:22:04;;;;;;;7.43;3.70;;;17.40;81.60;;;;;;4193333;28;20220;-76
2022/02/13 01:24:09;;;;;;;4.63;3.38;;;17.40;81.50;;;;;;4190998;28;20628;-76
2022/02/13 01:26:12;;;;;;;5.20;3.75;;;17.40;81.40;;;;;;4191475;28;20245;-76
2022/02/13 01:28:15;;;;;;;5.13;3.63;;;17.30;81.70;;;;;;4193231;28;20218;-75
2022/02/13 01:30:17;;;;;;;5.07;3.65;;;17.30;81.60;;;;;;4191589;28;20672;-74
2022/02/13 01:32:19;;;;;;;5.45;4.03;;;17.30;81.30;;;;;;4193251;28;20851;-73
2022/02/13 01:34:22;;;;;;;6.38;3.65;;;17.30;81.30;;;;;;4193345;28;20675;-73
2022/02/13 01:36:24;;;;;;;6.53;3.80;;;17.30;81.40;;;;;;4193387;28;20948;-74
2022/02/13 01:38:28;;;;;;;5.15;3.65;;;17.30;81.40;;;;;;4193176;28;20656;-74
2022/02/13 01:40:31;;;;;;;5.53;3.60;;;17.30;81.40;;;;;;4192271;28;20233;-73
2022/02/13 01:42:33;;;;;;;4.47;3.50;;;17.30;81.40;;;;;;4193280;28;20257;-74
2022/02/13 01:44:36;;;;;;;4.13;3.03;;;17.30;81.30;;;;;;4189869;28;20628;-74
2022/02/13 01:46:38;;;;;;;4.30;3.50;;;17.30;80.90;;;;;;4193059;28;20680;-73
2022/02/13 01:48:41;;;;;;;5.53;3.20;;;17.30;81.10;;;;;;4192982;28;20215;-73
2022/02/13 01:50:44;;;;;;;4.97;3.40;;;17.30;81.10;;;;;;4193439;28;20721;-74
2022/02/13 01:52:46;;;;;;;5.25;3.33;;;17.30;81.20;;;;;;4192861;28;20246;-74
2022/02/13 01:54:50;;;;;;;5.57;3.58;;;17.20;81.30;;;;;;4193514;28;20223;-74
2022/02/13 01:56:52;;;;;;;4.13;3.35;;;17.30;81.30;;;;;;4193283;28;20215;-73
2022/02/13 01:58:55;;;;;;;4.90;3.30;;;17.30;81.30;;;;;;4192844;28;20349;-74
2022/02/13 02:00:57;;;;;;;5.47;3.47;;;17.20;82.00;;;;;;4192607;28;20219;-74
2022/02/13 02:02:59;;;;;;;5.40;3.63;;;17.20;81.40;;;;;;4192086;28;20251;-73
2022/02/13 02:05:03;;;;;;;4.63;3.50;;;17.20;81.30;;;;;;4191020;28;20612;-74
2022/02/13 02:07:05;;;;;;;5.03;3.40;;;17.20;81.40;;;;;;4192885;28;20215;-74
2022/02/13 02:09:08;;;;;;;4.78;3.42;;;17.20;81.40;;;;;;4192744;28;20219;-73
2022/02/13 02:11:12;;;;;;;4.60;2.78;;;17.20;81.30;;;;;;4192535;28;20227;-74
2022/02/13 02:13:14;;;;;;;3.47;2.97;;;17.20;81.20;;;;;;4191429;28;20617;-73
2022/02/13 02:15:17;;;;;;;4.82;3.40;;;17.20;82.00;;;;;;4193181;28;20245;-74
2022/02/13 02:17:20;;;;;;;3.92;2.92;;;17.20;81.10;;;;;;4193462;28;20329;-74
2022/02/13 02:19:22;;;;;;;4.00;2.88;;;17.20;81.30;;;;;;4196066;28;20276;-73
2022/02/13 02:21:24;;;;;;;3.75;3.03;;;17.20;81.30;;;;;;4194556;28;20237;-74
2022/02/13 02:23:28;;;;;;;4.82;2.90;;;17.20;81.30;;;;;;4195705;28;20238;-74
2022/02/13 02:25:30;;;;;;;4.93;3.28;;;17.20;81.30;;;;;;4195883;28;20220;-74
2022/02/13 02:27:33;;;;;;;5.03;3.00;;;17.20;81.30;;;;;;4196009;28;20691;-74
2022/02/13 02:29:35;;;;;;;5.40;3.47;;;17.20;81.40;;;;;;4196004;28;20219;-74
2022/02/13 02:31:37;;;;;;;5.32;3.10;;;17.20;81.30;;;;;;4195477;28;20219;-74
2022/02/13 02:33:40;;;;;;;5.88;3.45;;;17.20;81.30;;;;;;4195778;28;20226;-74
2022/02/13 02:35:42;;;;;;;4.70;2.80;;;17.20;81.30;;;;;;4195381;28;20218;-74
2022/02/13 02:37:45;;;;;;;4.30;3.25;;;17.20;81.30;;;;;;4195681;28;20226;-74
2022/02/13 02:39:48;;;;;;;4.80;3.25;;;17.20;81.20;;;;;;4195391;28;20230;-74
2022/02/13 02:41:50;;;;;;;3.97;3.15;;;17.10;81.20;;;;;;4196205;28;20215;-73
2022/02/13 02:43:53;;;;;;;6.05;3.33;;;17.10;81.10;;;;;;4195927;28;20668;-73
2022/02/13 02:45:55;;;;;;;4.45;3.10;;;17.10;81.20;;;;;;4195961;28;20215;-74
2022/02/13 02:47:57;;;;;;;3.97;2.85;;;17.10;81.20;;;;;;4195583;28;20268;-73
2022/02/13 02:50:00;;;;;;;5.00;3.25;;;17.10;81.20;;;;;;4195316;28;20211;-73
2022/02/13 02:52:02;;;;;;;4.50;3.03;;;17.10;81.00;;;;;;4195636;28;20239;-74
2022/02/13 02:54:04;;;;;;;4.75;3.10;;;17.10;80.90;;;;;;4196111;28;20643;-74
2022/02/13 02:56:08;;;;;;;3.53;2.90;;;17.10;81.10;;;;;;4194080;28;20260;-74
2022/02/13 02:58:10;;;;;;;3.78;2.80;;;17.10;81.10;;;;;;4195856;28;20215;-74
2022/02/13 03:00:13;;;;;;;5.20;2.85;;;17.10;81.20;;;;;;4193948;28;20271;-73
2022/02/13 03:02:16;;;;;;;4.22;2.90;;;17.10;81.30;;;;;;4190654;28;20231;-74
2022/02/13 03:04:18;;;;;;;4.38;2.72;;;17.10;81.20;;;;;;4192371;28;20296;-74
2022/02/13 03:06:20;;;;;;;4.72;3.10;;;17.10;81.20;;;;;;4195629;28;20217;-73
2022/02/13 03:08:23;;;;;;;3.85;2.85;;;17.10;81.10;;;;;;4195637;28;20211;-74
2022/02/13 03:10:25;;;;;;;3.72;2.95;;;17.10;81.10;;;;;;4195584;28;20659;-74
2022/02/13 03:12:29;;;;;;;3.92;2.58;;;17.10;81.20;;;;;;4193388;28;20264;-74
2022/02/13 03:14:31;;;;;;;4.63;2.70;;;17.00;81.10;;;;;;4195064;28;20256;-74
2022/02/13 03:16:34;;;;;;;3.25;2.70;;;17.10;81.10;;;;;;4194963;28;20219;-73
2022/02/13 03:18:37;;;;;;;4.60;2.92;;;17.10;81.30;;;;;;4195575;28;20227;-74
2022/02/13 03:20:40;;;;;;;3.97;2.80;;;17.10;81.10;;;;;;4195805;28;20215;-74
2022/02/13 03:22:42;;;;;;;3.92;2.67;;;17.10;81.10;;;;;;4195026;28;20215;-73
2022/02/13 03:24:44;;;;;;;4.68;2.80;;;17.00;81.10;;;;;;4195148;28;20215;-74
2022/02/13 03:26:46;;;;;;;4.40;2.92;;;17.10;81.20;;;;;;4195021;28;20219;-74
2022/02/13 03:28:50;;;;;;;5.10;2.97;;;17.10;81.20;;;;;;4192909;28;20332;-74
2022/02/13 03:30:52;;;;;;;3.88;2.65;;;17.00;81.10;;;;;;4193555;28;20246;-73
2022/02/13 03:32:55;;;;;;;4.30;2.83;;;17.00;81.10;;;;;;4190108;28;20246;-73
2022/02/13 03:34:57;;;;;;;4.65;3.00;;;17.00;81.00;;;;;;4195182;28;20264;-73
2022/02/13 03:36:59;;;;;;;4.38;3.00;;;17.00;81.10;;;;;;4194268;28;20284;-73
2022/02/13 03:39:02;;;;;;;3.33;2.72;;;17.00;81.20;;;;;;4194808;28;20709;-73
2022/02/13 03:41:04;;;;;;;3.08;2.55;;;17.00;81.10;;;;;;4194259;28;20215;-74
2022/02/13 03:43:07;;;;;;;3.50;2.83;;;17.00;81.10;;;;;;4194450;28;20227;-73
2022/02/13 03:45:11;;;;;;;3.65;2.88;;;17.00;81.20;;;;;;4194908;28;20227;-73
2022/02/13 03:47:13;;;;;;;4.43;2.67;;;17.00;80.90;;;;;;4194109;28;20227;-74
2022/02/13 03:49:16;;;;;;;3.70;2.78;;;17.00;81.00;;;;;;4194177;28;20215;-74
2022/02/13 03:51:18;;;;;;;4.50;2.88;;;16.90;81.00;;;;;;4194680;28;20508;-74
2022/02/13 03:53:21;;;;;;;4.00;2.90;;;16.90;81.20;;;;;;4193559;28;20239;-73
2022/02/13 03:55:23;;;;;;;4.15;2.65;;;16.90;81.00;;;;;;4194614;28;20219;-73
2022/02/13 03:57:25;;;;;;;4.32;3.30;;;17.00;81.00;;;;;;4193160;28;20212;-73
2022/02/13 03:59:27;;;;;;;3.47;2.60;;;17.00;81.00;;;;;;4192946;28;20303;-73
2022/02/13 04:01:31;;;;;;;4.43;2.70;;;16.90;80.90;;;;;;4194401;28;20261;-71
2022/02/13 04:03:34;;;;;;;3.63;2.45;;;16.90;80.90;;;;;;4193313;28;20648;-71
2022/02/13 04:05:36;;;;;;;3.80;2.55;;;17.00;80.90;;;;;;4194111;28;20219;-71
2022/02/13 04:07:40;;;;;;;3.22;2.45;;;16.90;80.90;;;;;;4194074;28;20223;-71
2022/02/13 04:09:43;;;;;;;3.83;2.70;;;16.90;80.90;;;;;;4194581;28;20215;-71
2022/02/13 04:11:45;;;;;;;4.65;2.67;;;16.90;80.90;;;;;;4194461;28;20227;-71
2022/02/13 04:13:47;;;;;;;3.08;2.28;;;16.90;81.00;;;;;;4194288;28;20243;-71
2022/02/13 04:15:50;;;;;;;3.40;2.90;;;16.80;80.90;;;;;;4192696;28;20720;-71
2022/02/13 04:17:53;;;;;;;3.83;2.60;;;16.90;81.00;;;;;;4194375;28;20712;-71
2022/02/13 04:19:56;;;;;;;5.15;3.10;;;16.90;81.00;;;;;;4193018;28;20679;-71
2022/02/13 04:21:58;;;;;;;3.40;2.30;;;16.90;80.80;;;;;;4194108;28;20268;-71
2022/02/13 04:24:00;;;;;;;4.60;2.75;;;16.90;80.80;;;;;;4194463;28;20680;-71
2022/02/13 04:26:03;;;;;;;3.63;2.20;;;16.80;80.90;;;;;;4194310;28;20215;-71
2022/02/13 04:28:06;;;;;;;3.38;2.35;;;16.80;80.90;;;;;;4194077;28;20249;-71
2022/02/13 04:30:09;;;;;;;3.00;2.70;;;16.80;81.00;;;;;;4194057;28;20211;-71
2022/02/13 04:32:11;;;;;;;3.83;2.40;;;16.90;81.10;;;;;;4193145;28;20215;-71
2022/02/13 04:34:15;;;;;;;3.67;2.67;;;16.80;80.90;;;;;;4193396;28;20813;-71
2022/02/13 04:36:17;;;;;;;3.63;2.83;;;16.90;81.10;;;;;;4193786;28;20219;-71
2022/02/13 04:38:21;;;;;;;3.50;2.47;;;16.80;81.00;;;;;;4192851;28;20689;-71
2022/02/13 04:40:24;;;;;;;4.15;2.33;;;16.80;80.90;;;;;;4192012;28;20211;-71
2022/02/13 04:42:26;;;;;;;3.80;2.50;;;16.80;80.90;;;;;;4192850;28;20215;-72
2022/02/13 04:44:29;;;;;;;6.05;3.00;;;16.80;80.90;;;;;;4193573;28;20215;-71
2022/02/13 04:46:31;;;;;;;3.75;2.70;;;16.80;80.90;;;;;;4193351;28;20269;-71
2022/02/13 04:48:33;;;;;;;4.07;2.22;;;16.80;80.90;;;;;;4193791;28;20214;-71
2022/02/13 04:50:37;;;;;;;4.20;2.55;;;16.80;81.00;;;;;;4189783;28;20211;-71
2022/02/13 04:52:39;;;;;;;3.33;2.30;;;16.70;80.90;;;;;;4192713;28;20215;-71
2022/02/13 04:54:42;;;;;;;3.20;2.40;;;16.80;80.90;;;;;;4192605;28;20265;-71
2022/02/13 04:56:44;;;;;;;4.95;2.60;;;16.80;81.80;;;;;;4193688;28;20241;-71
2022/02/13 04:58:46;;;;;;;3.28;2.63;;;16.80;80.80;;;;;;4193586;28;20300;-71
2022/02/13 05:00:49;;;;;;;3.40;2.40;;;16.80;80.80;;;;;;4193680;28;20261;-71
2022/02/13 05:02:51;;;;;;;3.72;2.60;;;16.80;80.90;;;;;;4191339;28;20284;-71
2022/02/13 05:04:53;;;;;;;2.88;2.58;;;16.80;81.00;;;;;;4193739;28;20215;-71
2022/02/13 05:06:57;;;;;;;3.03;2.22;;;16.80;81.00;;;;;;4193455;28;20215;-71
2022/02/13 05:09:00;;;;;;;3.28;2.50;;;16.70;80.90;;;;;;4193611;28;20264;-71
2022/02/13 05:11:02;;;;;;;3.67;2.20;;;16.70;80.90;;;;;;4192445;28;20813;-71
2022/02/13 05:13:04;;;;;;;3.85;2.55;;;16.70;81.10;;;;;;4193942;28;20223;-73
2022/02/13 05:15:08;;;;;;;2.92;2.45;;;16.70;81.00;;;;;;4193510;28;20237;-72
2022/02/13 05:17:10;;;;;;;3.97;2.42;;;16.70;81.20;;;;;;4193247;28;20285;-71
2022/02/13 05:19:13;;;;;;;2.40;1.70;;;16.70;81.30;;;;;;4192417;28;20215;-71
2022/02/13 05:21:15;;;;;;;2.90;2.33;;;16.70;81.20;;;;;;4189154;28;20211;-72
2022/02/13 05:23:19;;;;;;;3.22;2.28;;;16.70;81.10;;;;;;4193737;28;20203;-71
2022/02/13 05:25:22;;;;;;;5.07;2.65;;;16.70;81.00;;;;;;4193367;28;20627;-71
2022/02/13 05:27:24;;;;;;;2.70;2.20;;;16.70;81.00;;;;;;4192849;28;20215;-72
2022/02/13 05:29:26;;;;;;;3.25;2.30;;;16.70;81.00;;;;;;4191730;28;20722;-71
2022/02/13 05:31:30;;;;;;;4.28;2.67;;;16.70;81.00;;;;;;4192873;28;21721;-71
2022/02/13 05:33:32;;;;;;;3.70;2.42;;;16.70;81.00;;;;;;4192749;28;20243;-71
2022/02/13 05:35:34;;;;;;;3.28;2.50;;;16.70;81.00;;;;;;4193306;28;20276;-71
2022/02/13 05:37:39;;;;;;;3.67;2.42;;;16.60;81.00;;;;;;4193133;28;20637;-72
2022/02/13 05:39:43;;;;;;;2.63;2.15;;;16.70;81.20;;;;;;4193019;28;20288;-71
2022/02/13 05:41:46;;;;;;;4.07;2.20;;;16.70;81.20;;;;;;4193197;28;20307;-72
2022/02/13 05:43:48;;;;;;;3.90;2.20;;;16.70;81.10;;;;;;4193399;28;20211;-71
2022/02/13 05:45:50;;;;;;;4.43;2.40;;;16.70;81.00;;;;;;4191923;28;20223;-71
2022/02/13 05:47:53;;;;;;;3.85;2.60;;;16.60;81.00;;;;;;4192921;28;20308;-71
2022/02/13 05:49:55;;;;;;;3.72;2.28;;;16.70;81.00;;;;;;4193185;28;20265;-71
2022/02/13 05:51:57;;;;;;;3.15;2.17;;;16.70;81.00;;;;;;4193119;28;20672;-71
2022/02/13 05:54:00;;;;;;;3.40;2.40;;;16.70;81.00;;;;;;4196402;28;20239;-72
2022/02/13 05:56:04;;;;;;;3.22;2.40;;;16.60;80.90;;;;;;4196709;28;20219;-71
2022/02/13 05:58:06;;;;;;;4.45;2.50;;;16.70;81.00;;;;;;4196321;28;20269;-71
2022/02/13 06:00:11;;;;;;;4.00;2.20;;;16.60;81.00;;;;;;4196040;28;20273;-71
2022/02/13 06:02:14;;;;;;;4.47;2.30;;;16.60;80.90;;;;;;4195245;28;20239;-73
2022/02/13 06:04:16;;;;;;;3.28;2.05;;;16.60;81.00;;;;;;4195795;28;20215;-71
2022/02/13 06:06:18;;;;;;;3.67;2.65;;;16.70;81.00;;;;;;4195925;28;20610;-71
2022/02/13 06:08:21;;;;;;;2.97;2.13;;;16.60;80.80;;;;;;4196349;28;20986;-71
2022/02/13 06:10:23;;;;;;;3.30;2.25;;;16.60;81.00;;;;;;4196513;28;20219;-71
2022/02/13 06:12:27;;;;;;;2.88;1.98;;;16.60;80.90;;;;;;4195649;28;20223;-71
2022/02/13 06:14:29;;;;;;;3.67;2.40;;;16.60;81.00;;;;;;4196591;28;20272;-71
2022/02/13 06:16:31;;;;;;;3.83;2.03;;;16.60;81.00;;;;;;4196227;28;20728;-71
2022/02/13 06:18:34;;;;;;;3.95;2.40;;;16.60;81.00;;;;;;4195552;28;20624;-71
2022/02/13 06:20:37;;;;;;;3.08;2.28;;;16.60;81.00;;;;;;4194715;28;20222;-71
2022/02/13 06:22:40;;;;;;;3.17;2.28;;;16.60;81.10;;;;;;4196068;28;20684;-72
2022/02/13 06:24:42;;;;;;;2.58;1.92;;;16.60;81.20;;;;;;4195736;28;20210;-72
2022/02/13 06:26:44;;;;;;;2.17;1.80;;;16.50;81.10;;;;;;4194831;28;21806;-72
2022/02/13 06:28:48;;;;;;;2.95;2.10;;;16.60;81.20;;;;;;4195941;28;20705;-72
2022/02/13 06:30:50;;;;;;;3.28;2.20;;;16.60;81.30;;;;;;4194162;28;20223;-72
2022/02/13 06:32:53;;;;;;;3.42;2.13;;;16.60;81.20;;;;;;4195249;28;20273;-72
2022/02/13 06:34:55;;;;;;;2.75;2.00;;;16.60;81.30;;;;;;4195318;28;20707;-73
2022/02/13 06:36:57;;;;;;;3.35;2.55;;;16.60;81.30;;;;;;4194081;28;20733;-72
2022/02/13 06:39:00;;;;;;;2.97;2.08;;;16.50;81.30;;;;;;4190749;28;20215;-72
2022/02/13 06:41:02;;;;;;;3.50;2.28;;;16.50;81.30;;;;;;4194409;28;20265;-72
2022/02/13 06:43:04;;;;;;;3.75;2.17;;;16.60;81.40;;;;;;4195263;28;20219;-73
2022/02/13 06:45:09;;;;;;;2.90;2.10;;;16.50;81.30;;;;;;4196006;28;21077;-73
2022/02/13 06:47:11;;;;;;;2.72;1.90;;;16.60;81.30;;;;;;4195668;28;20268;-72
2022/02/13 06:49:14;;;;;;;3.97;2.10;;;16.50;81.20;;;;;;4195442;28;20222;-72
2022/02/13 06:51:16;;;;;;;3.88;2.45;;;16.60;81.30;;;;;;4195399;28;20258;-72
2022/02/13 06:53:18;;;;;;;2.88;2.25;;;16.60;81.30;;;;;;4193949;28;20272;-72
2022/02/13 06:55:21;;;;;;;3.05;1.88;;;16.60;81.20;;;;;;4195277;28;20634;-73
2022/02/13 06:57:23;;;;;;;3.47;2.30;;;16.50;81.20;;;;;;4195567;28;20218;-72
2022/02/13 06:59:25;;;;;;;3.08;2.08;;;16.50;81.30;;;;;;4194905;28;20611;-72
2022/02/13 07:01:29;;;;;;;2.92;1.92;;;16.50;81.30;;;;;;4195173;28;20218;-72
2022/02/13 07:03:31;;;;;;;2.10;1.73;;;16.50;81.30;;;;;;4194758;28;20765;-72
2022/02/13 07:05:34;;;;;;;3.17;1.90;;;16.50;81.10;;;;;;4194818;28;20227;-72
2022/02/13 07:07:37;;;;;;;3.67;2.10;;;16.50;81.20;;;;;;4195628;28;20223;-72
2022/02/13 07:09:39;;;;;;;2.60;1.80;;;16.60;81.40;;;;;;4192965;28;20256;-72
2022/02/13 07:11:41;;;;;;;3.00;2.22;;;16.60;81.40;;;;;;4194700;28;20215;-72
2022/02/13 07:13:44;;;;;;;2.95;1.98;;;16.50;81.30;;;;;;4195235;28;20215;-72
2022/02/13 07:15:46;;;;;;;3.90;2.22;;;16.50;81.40;;;;;;4194947;28;20269;-72
2022/02/13 07:17:50;;;;;;;2.67;2.05;;;16.50;82.20;;;;;;4194997;28;20223;-72
2022/02/13 07:19:52;;;;;;;3.03;1.98;;;16.50;81.50;;;;;;4193009;28;20211;-73
2022/02/13 07:21:55;;;;;;;2.42;1.75;;;16.50;81.30;;;;;;4194983;28;20208;-72
2022/02/13 07:23:57;;;;;;;2.72;1.95;;;16.50;81.30;;;;;;4193420;28;20215;-72
2022/02/13 07:25:59;;;;;;;3.35;2.05;;;16.50;81.40;;;;;;4195273;28;20215;-72
2022/02/13 07:28:58;;;;;;;4.68;2.45;;;16.50;81.40;;;;;;4194299;28;20702;-72
2022/02/13 07:30:25;;;;;;;2.45;1.80;;;16.50;81.40;;;;;;4194650;28;20276;-72
2022/02/13 07:32:28;;;;;;;2.53;2.10;;;16.50;81.30;;;;;;4194837;28;20253;-73
2022/02/13 07:34:31;;;;;;;2.85;2.00;;;16.50;81.30;;;;;;4195032;28;20231;-72
2022/02/13 07:36:36;;;;;;;3.17;2.00;;;16.50;81.30;;;;;;4195581;28;20223;-73
2022/02/13 07:38:39;;;;;;;2.53;1.88;;;16.50;81.20;;;;;;4194785;28;20227;-73
2022/02/13 07:40:41;;;;;;;2.05;1.80;;;16.50;81.40;;;;;;4194876;28;20260;-72
2022/02/13 07:42:44;;;;;;;3.83;1.98;;;16.50;81.30;;;;;;4194318;28;20269;-72
2022/02/13 07:44:48;;;;;;;3.92;2.00;;;16.50;81.30;;;;;;4193781;28;20219;-73
2022/02/13 07:46:50;;;;;;;4.03;2.13;;;16.50;81.50;;;;;;4193658;28;20219;-72
2022/02/13 07:48:52;;;;;;;4.28;2.13;;;16.50;81.50;;;;;;4194555;28;20219;-73
2022/02/13 07:50:56;;;;;;;3.42;2.38;;;16.50;81.40;;;;;;4194822;28;20705;-72
2022/02/13 07:52:58;;;;;;;3.05;1.88;;;16.50;81.40;;;;;;4194890;28;20203;-72
2022/02/13 07:55:01;;;;;;;2.85;2.03;;;16.50;82.10;;;;;;4194068;28;20710;-73
2022/02/13 07:57:04;;;;;;;3.25;2.05;;;16.50;81.40;;;;;;4194527;28;20656;-73
2022/02/13 07:59:07;;;;;;;3.17;1.73;;;16.50;81.60;;;;;;4194433;28;20269;-72
2022/02/13 08:01:09;;;;;;;2.60;2.10;;;16.50;81.30;;;;;;4193286;28;21662;-72
2022/02/13 08:03:11;;;;;;;2.50;1.75;;;16.50;81.30;;;;;;4194129;28;20281;-73
2022/02/13 08:05:14;;;;;;;1.85;1.63;;;16.50;81.40;;;;;;4194969;28;20218;-74
2022/02/13 08:07:17;;;;;;;3.13;2.00;;;16.50;81.50;;;;;;4193833;28;20207;-75
2022/02/13 08:09:20;;;;;;;2.75;1.90;;;16.50;81.50;;;;;;4192780;28;20628;-75
2022/02/13 08:11:22;;;;;;;2.90;1.70;;;16.50;81.50;;;;;;4194263;28;20260;-75
2022/02/13 08:13:24;;;;;;;3.50;2.03;;;16.50;81.50;;;;;;4194154;28;20227;-75
2022/02/13 08:15:27;;;;;;;3.35;2.03;;;16.50;81.50;;;;;;4193917;28;20296;-75
2022/02/13 08:17:29;;;;;;;2.20;2.00;;;16.50;81.50;;;;;;4194063;28;20582;-75
2022/02/13 08:19:35;;;;;;;2.90;1.85;;;16.50;81.60;;;;;;4191642;28;20207;-75
2022/02/13 08:21:37;;;;;;;2.90;2.05;;;16.50;81.70;;;;;;4194111;28;20231;-75
2022/02/13 08:23:44;;;;;;;2.17;1.85;;;16.50;81.50;;;;;;4194334;28;20219;-75
2022/02/13 08:25:48;;;;;;;2.65;1.95;;;16.50;81.60;;;;;;4193179;28;20280;-75
2022/02/13 08:27:50;;;;;;;2.10;1.90;;;16.50;81.60;;;;;;4188979;28;20227;-75
2022/02/13 08:29:53;;;;;;;2.28;1.88;;;16.50;81.70;;;;;;4191347;28;20264;-75
2022/02/13 08:31:56;;;;;;;3.03;2.00;;;16.50;81.80;;;;;;4193599;28;20207;-75
2022/02/13 08:33:58;;;;;;;2.45;2.00;;;16.50;81.80;;;;;;4193689;28;20277;-75
2022/02/13 08:36:01;;;;;;;3.42;2.08;;;16.50;81.80;;;;;;4191774;28;20227;-75
2022/02/13 08:38:04;;;;;;;3.25;2.17;;;16.50;81.80;;;;;;4193428;28;20241;-75
2022/02/13 08:40:09;;;;;;;3.25;2.15;;;16.50;81.80;;;;;;4193787;28;20231;-75
2022/02/13 08:42:12;;;;;;;2.20;1.98;;;16.50;81.80;;;;;;4193732;28;20219;-75
2022/02/13 08:44:14;;;;;;;2.45;1.70;;;16.50;81.90;;;;;;4193261;28;20222;-75
2022/02/13 08:46:17;;;;;;;2.38;2.08;;;16.50;81.90;;;;;;4189858;28;20220;-75
2022/02/13 08:48:21;;;;;;;2.40;1.95;;;16.50;81.80;;;;;;4192677;28;20211;-75
2022/02/13 08:50:23;;;;;;;3.35;2.00;;;16.50;82.00;;;;;;4193104;28;20630;-75
2022/02/13 08:52:26;;;;;;;3.25;2.13;;;16.50;82.10;;;;;;4191551;28;20215;-75
2022/02/13 08:54:28;;;;;;;2.72;1.83;;;16.50;82.10;;;;;;4193131;28;20211;-75
2022/02/13 08:56:32;;;;;;;2.45;1.85;;;16.50;82.00;;;;;;4193218;28;20273;-75
2022/02/13 08:58:34;;;;;;;2.40;1.92;;;16.50;82.10;;;;;;4193184;28;20219;-75
2022/02/13 09:00:37;;;;;;;3.45;2.22;;;16.50;82.10;;;;;;4193478;28;20238;-75
2022/02/13 09:02:40;;;;;;;2.38;1.80;;;16.50;82.10;;;;;;4193226;28;20242;-75
2022/02/13 09:04:42;;;;;;;3.47;2.10;;;16.50;82.10;;;;;;4192978;28;20675;-75
2022/02/13 09:06:44;;;;;;;3.28;1.98;;;16.50;82.10;;;;;;4191317;28;20215;-75
2022/02/13 09:08:47;;;;;;;3.00;1.83;;;16.50;82.10;;;;;;4192982;28;20256;-75
2022/02/13 09:10:49;;;;;;;2.42;1.92;;;16.50;82.20;;;;;;4193613;28;20222;-75
2022/02/13 09:12:53;;;;;;;2.38;1.80;;;16.60;82.20;;;;;;4193119;28;20272;-75
2022/02/13 09:14:55;;;;;;;3.35;1.98;;;16.60;82.40;;;;;;4192062;28;20268;-75
2022/02/13 09:16:57;;;;;;;2.85;1.80;;;16.50;82.30;;;;;;4193247;28;20234;-75
2022/02/13 09:19:00;;;;;;;2.58;1.98;;;16.60;82.40;;;;;;4193317;28;20222;-75
2022/02/13 09:21:04;;;;;;;2.30;1.70;;;16.60;82.40;;;;;;4193028;28;20268;-75
2022/02/13 09:23:07;;;;;;;2.65;2.00;;;16.50;82.30;;;;;;4193090;28;20656;-75
2022/02/13 09:25:09;;;;;;;2.45;1.92;;;16.60;82.60;;;;;;4193296;28;20222;-75
2022/02/13 09:27:12;;;;;;;2.47;1.80;;;16.50;82.40;;;;;;4191365;28;20279;-73
2022/02/13 09:29:16;;;;;;;3.40;1.92;;;16.50;82.60;;;;;;4193398;28;20215;-72
2022/02/13 09:31:18;;;;;;;2.67;1.80;;;16.60;82.80;;;;;;4193649;28;20858;-73
2022/02/13 09:33:21;;;;;;;3.78;2.10;;;16.60;82.80;;;;;;4193194;28;20632;-72
2022/02/13 09:35:23;;;;;;;2.20;2.00;;;16.60;82.70;;;;;;4191634;28;20223;-72
2022/02/13 09:37:26;;;;;;;2.78;2.15;;;16.60;82.60;;;;;;4192956;28;20214;-73
2022/02/13 09:39:29;;;;;;;2.45;1.80;;;16.60;82.70;;;;;;4193032;28;20219;-73
2022/02/13 09:41:32;;;;;;;2.33;1.70;;;16.60;82.90;;;;;;4192451;28;20667;-73
2022/02/13 09:43:34;;;;;;;2.78;1.90;;;16.60;82.80;;;;;;4191380;28;20230;-72
2022/02/13 09:45:42;;;;;;;2.38;1.92;;;16.60;83.60;;;;;;4193007;28;20276;-73
2022/02/13 09:47:46;;;;;;;2.55;2.05;;;16.60;82.90;;;;;;4192387;28;20285;-73
2022/02/13 09:49:48;;;;;;;3.33;2.03;;;16.60;82.80;;;;;;4193531;28;20199;-73
2022/02/13 09:51:51;;;;;;;2.78;1.92;;;16.70;82.90;;;;;;4192696;28;20275;-73
2022/02/13 09:53:53;;;;;;;2.13;1.77;;;16.60;82.80;;;;;;4193145;28;20226;-73
2022/02/13 09:55:58;;;;;;;2.33;1.90;;;16.60;82.80;;;;;;4192682;28;20243;-73
2022/02/13 09:58:03;;;;;;;3.70;2.30;;;16.60;82.80;;;;;;4193143;28;20268;-73
2022/02/13 10:00:06;;;;;;;4.28;2.28;;;16.60;83.00;;;;;;4191305;28;20804;-73
2022/02/13 10:02:37;;;;;;;3.05;1.90;;;16.60;82.80;;;;;;4192994;28;20288;-73
2022/02/13 10:04:42;;;;;;;3.28;2.05;;;16.60;83.10;;;;;;4193168;28;20215;-73
2022/02/13 10:06:45;;;;;;;2.53;1.98;;;16.60;82.80;;;;;;4191876;28;20269;-74
2022/02/13 10:08:49;;;;;;;2.00;1.80;;;16.60;82.90;;;;;;4193252;28;20215;-73
2022/02/13 10:11:10;;;;;;;2.58;2.00;;;16.60;83.10;;;;;;4192897;28;20215;-73
2022/02/13 10:13:13;;;;;;;2.05;1.70;;;16.60;83.10;;;;;;4192606;28;20281;-73
2022/02/13 10:15:32;;;;;;;2.63;2.10;;;16.60;83.50;;;;;;4186834;28;20224;-73
2022/02/13 10:17:55;;;;;;;3.60;2.15;;;16.60;83.30;;;;;;4189585;28;20243;-72
2022/02/13 10:20:02;;;;;;;2.70;2.13;;;16.60;83.20;;;;;;4191785;28;20207;-72
2022/02/13 10:22:05;;;;;;;3.78;1.95;;;16.70;83.20;;;;;;4192985;28;20660;-72
2022/02/13 10:24:18;;;;;;;2.90;2.05;;;16.60;82.90;;;;;;4193047;28;20257;-73
2022/02/13 10:26:21;;;;;;;3.20;2.40;;;16.60;83.20;;;;;;4192462;28;20620;-72
2022/02/13 10:28:25;;;;;;;3.38;2.17;;;16.60;83.20;;;;;;4192827;28;20215;-72
2022/02/13 10:30:41;;;;;;;2.63;2.10;;;16.60;83.30;;;;;;4193474;28;20215;-72
2022/02/13 10:32:44;;;;;;;2.00;1.80;;;16.70;83.70;;;;;;4191605;28;20223;-72
2022/02/13 10:35:04;;;;;;;3.30;2.40;;;16.60;84.00;;;;;;4192648;28;20219;-73
2022/02/13 10:37:06;;;;;;;2.47;2.10;;;16.60;83.60;;;;;;4190986;28;20239;-72
2022/02/13 10:39:28;;;;;;;3.60;2.15;;;16.70;83.60;;;;;;4193123;28;20215;-74
2022/02/13 10:41:30;;;;;;;2.85;2.03;;;16.60;83.50;;;;;;4192491;28;20241;-74